Terminal Aerodrome Forecast
Issued by NWS

Home | Current Version | Previous Version | Text Only | Print | Product List | Glossary On
Versions: 1 2 3 4 5 6 7 8 9 10 11 12 13 14 15 16 17
372
FTUS42 KMLB 181738
TAFLEE
TAF
KLEE 181738Z 1818/1918 05012KT P6SM FEW020 BKN050 BKN080
     FM190100 02009KT P6SM FEW050 SCT250
     FM191500 04010KT P6SM FEW040=

USA.gov is the U.S. government's official web portal to all federal, state and local government web resources and services.